sensor_id;sensor_type;location;lat;lon;timestamp;P1;durP1;ratioP1;P2;durP2;ratioP2
18853;SDS011;9556;49.374;19.446;2022-07-10T00:01:02;10.00;;;7.10;;
18853;SDS011;9556;49.374;19.446;2022-07-10T00:03:29;10.50;;;6.53;;
18853;SDS011;9556;49.374;19.446;2022-07-10T00:05:57;10.87;;;6.90;;
18853;SDS011;9556;49.374;19.446;2022-07-10T00:08:26;14.07;;;6.90;;
18853;SDS011;9556;49.374;19.446;2022-07-10T00:10:53;11.23;;;8.03;;
18853;SDS011;9556;49.374;19.446;2022-07-10T00:13:20;19.60;;;8.40;;
18853;SDS011;9556;49.374;19.446;2022-07-10T00:15:47;13.50;;;8.20;;
18853;SDS011;9556;49.374;19.446;2022-07-10T00:18:14;15.70;;;7.77;;
18853;SDS011;9556;49.374;19.446;2022-07-10T00:20:41;14.07;;;7.87;;
18853;SDS011;9556;49.374;19.446;2022-07-10T00:23:08;12.47;;;9.17;;
18853;SDS011;9556;49.374;19.446;2022-07-10T00:25:37;13.33;;;8.80;;
18853;SDS011;9556;49.374;19.446;2022-07-10T00:28:04;16.27;;;8.30;;
18853;SDS011;9556;49.374;19.446;2022-07-10T00:30:31;10.93;;;7.17;;
18853;SDS011;9556;49.374;19.446;2022-07-10T00:32:58;10.80;;;8.33;;
18853;SDS011;9556;49.374;19.446;2022-07-10T00:35:25;11.23;;;7.60;;
18853;SDS011;9556;49.374;19.446;2022-07-10T00:37:52;13.40;;;8.30;;
18853;SDS011;9556;49.374;19.446;2022-07-10T00:40:19;14.53;;;9.90;;
18853;SDS011;9556;49.374;19.446;2022-07-10T00:42:48;14.13;;;8.50;;
18853;SDS011;9556;49.374;19.446;2022-07-10T00:45:15;14.87;;;9.17;;
18853;SDS011;9556;49.374;19.446;2022-07-10T00:47:42;13.13;;;9.17;;
18853;SDS011;9556;49.374;19.446;2022-07-10T00:50:09;11.40;;;8.43;;
18853;SDS011;9556;49.374;19.446;2022-07-10T00:52:37;13.07;;;8.53;;
18853;SDS011;9556;49.374;19.446;2022-07-10T00:55:05;16.70;;;9.13;;
18853;SDS011;9556;49.374;19.446;2022-07-10T00:57:33;14.10;;;9.27;;
18853;SDS011;9556;49.374;19.446;2022-07-10T01:00:03;14.80;;;9.13;;
18853;SDS011;9556;49.374;19.446;2022-07-10T01:02:31;18.87;;;10.33;;
18853;SDS011;9556;49.374;19.446;2022-07-10T01:04:58;20.47;;;9.03;;
18853;SDS011;9556;49.374;19.446;2022-07-10T01:07:25;12.83;;;8.83;;
18853;SDS011;9556;49.374;19.446;2022-07-10T01:09:52;15.10;;;8.80;;
18853;SDS011;9556;49.374;19.446;2022-07-10T01:12:19;12.80;;;9.17;;
18853;SDS011;9556;49.374;19.446;2022-07-10T01:14:47;16.73;;;9.77;;
18853;SDS011;9556;49.374;19.446;2022-07-10T01:17:15;14.70;;;9.17;;
18853;SDS011;9556;49.374;19.446;2022-07-10T01:19:44;14.60;;;8.50;;
18853;SDS011;9556;49.374;19.446;2022-07-10T01:22:12;15.37;;;9.13;;
18853;SDS011;9556;49.374;19.446;2022-07-10T01:24:40;14.43;;;8.67;;
18853;SDS011;9556;49.374;19.446;2022-07-10T01:27:07;13.40;;;9.20;;
18853;SDS011;9556;49.374;19.446;2022-07-10T01:29:34;17.27;;;9.53;;
18853;SDS011;9556;49.374;19.446;2022-07-10T01:32:02;15.97;;;9.83;;
18853;SDS011;9556;49.374;19.446;2022-07-10T01:34:29;15.07;;;8.97;;
18853;SDS011;9556;49.374;19.446;2022-07-10T01:36:56;18.00;;;9.67;;
18853;SDS011;9556;49.374;19.446;2022-07-10T01:39:25;15.87;;;9.17;;
18853;SDS011;9556;49.374;19.446;2022-07-10T01:41:52;25.17;;;10.97;;
18853;SDS011;9556;49.374;19.446;2022-07-10T01:44:19;16.10;;;10.70;;
18853;SDS011;9556;49.374;19.446;2022-07-10T01:46:46;17.63;;;11.63;;
18853;SDS011;9556;49.374;19.446;2022-07-10T01:49:14;21.13;;;11.93;;
18853;SDS011;9556;49.374;19.446;2022-07-10T01:51:41;20.87;;;11.57;;
18853;SDS011;9556;49.374;19.446;2022-07-10T01:54:08;17.80;;;11.17;;
18853;SDS011;9556;49.374;19.446;2022-07-10T01:56:37;18.60;;;11.50;;
18853;SDS011;9556;49.374;19.446;2022-07-10T01:59:04;20.00;;;11.90;;
18853;SDS011;9556;49.374;19.446;2022-07-10T02:01:31;18.73;;;11.40;;
18853;SDS011;9556;49.374;19.446;2022-07-10T02:03:59;19.73;;;12.07;;
18853;SDS011;9556;49.374;19.446;2022-07-10T02:06:43;17.77;;;11.67;;
18853;SDS011;9556;49.374;19.446;2022-07-10T02:09:10;22.20;;;11.67;;
18853;SDS011;9556;49.374;19.446;2022-07-10T02:11:41;20.90;;;12.70;;
18853;SDS011;9556;49.374;19.446;2022-07-10T02:14:08;19.07;;;11.63;;
18853;SDS011;9556;49.374;19.446;2022-07-10T02:16:35;21.40;;;13.70;;
18853;SDS011;9556;49.374;19.446;2022-07-10T02:19:03;32.97;;;12.67;;
18853;SDS011;9556;49.374;19.446;2022-07-10T02:21:30;21.67;;;14.30;;
18853;SDS011;9556;49.374;19.446;2022-07-10T02:23:57;21.50;;;12.23;;
18853;SDS011;9556;49.374;19.446;2022-07-10T02:26:24;23.73;;;12.57;;
18853;SDS011;9556;49.374;19.446;2022-07-10T02:28:53;21.57;;;13.47;;
18853;SDS011;9556;49.374;19.446;2022-07-10T02:31:20;26.10;;;12.77;;
18853;SDS011;9556;49.374;19.446;2022-07-10T02:33:48;22.27;;;12.60;;
18853;SDS011;9556;49.374;19.446;2022-07-10T02:36:15;22.87;;;12.67;;
18853;SDS011;9556;49.374;19.446;2022-07-10T02:38:42;20.80;;;12.87;;
18853;SDS011;9556;49.374;19.446;2022-07-10T02:41:09;20.53;;;13.67;;
18853;SDS011;9556;49.374;19.446;2022-07-10T02:43:36;23.43;;;13.60;;
18853;SDS011;9556;49.374;19.446;2022-07-10T02:46:05;20.40;;;12.63;;
18853;SDS011;9556;49.374;19.446;2022-07-10T02:48:32;24.57;;;14.77;;
18853;SDS011;9556;49.374;19.446;2022-07-10T02:50:59;24.63;;;13.47;;
18853;SDS011;9556;49.374;19.446;2022-07-10T02:53:26;22.43;;;12.47;;
18853;SDS011;9556;49.374;19.446;2022-07-10T02:55:53;21.87;;;12.07;;
18853;SDS011;9556;49.374;19.446;2022-07-10T02:58:20;21.13;;;12.77;;
18853;SDS011;9556;49.374;19.446;2022-07-10T03:00:47;19.03;;;12.17;;
18853;SDS011;9556;49.374;19.446;2022-07-10T03:03:16;21.60;;;13.30;;
18853;SDS011;9556;49.374;19.446;2022-07-10T03:05:43;21.37;;;12.93;;
18853;SDS011;9556;49.374;19.446;2022-07-10T03:08:10;20.97;;;13.27;;
18853;SDS011;9556;49.374;19.446;2022-07-10T03:10:37;29.83;;;13.00;;
18853;SDS011;9556;49.374;19.446;2022-07-10T03:13:05;18.57;;;12.57;;
18853;SDS011;9556;49.374;19.446;2022-07-10T03:15:32;18.80;;;12.13;;
18853;SDS011;9556;49.374;19.446;2022-07-10T03:17:59;19.70;;;11.17;;
18853;SDS011;9556;49.374;19.446;2022-07-10T03:20:28;18.57;;;11.43;;
18853;SDS011;9556;49.374;19.446;2022-07-10T03:22:55;19.03;;;11.60;;
18853;SDS011;9556;49.374;19.446;2022-07-10T03:25:22;22.90;;;11.43;;
18853;SDS011;9556;49.374;19.446;2022-07-10T03:27:49;18.23;;;10.93;;
18853;SDS011;9556;49.374;19.446;2022-07-10T03:30:16;25.07;;;12.07;;
18853;SDS011;9556;49.374;19.446;2022-07-10T03:32:45;16.00;;;10.73;;
18853;SDS011;9556;49.374;19.446;2022-07-10T03:35:12;17.90;;;10.83;;
18853;SDS011;9556;49.374;19.446;2022-07-10T03:37:40;19.10;;;10.80;;
18853;SDS011;9556;49.374;19.446;2022-07-10T03:40:08;17.70;;;11.00;;
18853;SDS011;9556;49.374;19.446;2022-07-10T03:42:35;15.20;;;11.17;;
18853;SDS011;9556;49.374;19.446;2022-07-10T03:45:03;20.83;;;10.97;;
18853;SDS011;9556;49.374;19.446;2022-07-10T03:47:30;21.80;;;12.00;;
18853;SDS011;9556;49.374;19.446;2022-07-10T03:49:57;20.67;;;12.13;;
18853;SDS011;9556;49.374;19.446;2022-07-10T03:52:24;19.47;;;12.00;;
18853;SDS011;9556;49.374;19.446;2022-07-10T03:54:54;21.20;;;13.10;;
18853;SDS011;9556;49.374;19.446;2022-07-10T03:57:21;19.53;;;12.50;;
18853;SDS011;9556;49.374;19.446;2022-07-10T04:00:07;19.27;;;13.17;;
18853;SDS011;9556;49.374;19.446;2022-07-10T04:02:34;26.83;;;13.50;;
18853;SDS011;9556;49.374;19.446;2022-07-10T04:05:01;18.77;;;12.70;;
18853;SDS011;9556;49.374;19.446;2022-07-10T04:07:31;20.37;;;13.17;;
18853;SDS011;9556;49.374;19.446;2022-07-10T04:10:00;23.50;;;13.73;;
18853;SDS011;9556;49.374;19.446;2022-07-10T04:12:27;19.03;;;13.03;;
18853;SDS011;9556;49.374;19.446;2022-07-10T04:14:54;21.23;;;12.83;;
18853;SDS011;9556;49.374;19.446;2022-07-10T04:17:21;23.73;;;14.60;;
18853;SDS011;9556;49.374;19.446;2022-07-10T04:19:48;23.40;;;14.40;;
18853;SDS011;9556;49.374;19.446;2022-07-10T04:22:15;25.30;;;14.63;;
18853;SDS011;9556;49.374;19.446;2022-07-10T04:24:42;24.60;;;14.13;;
18853;SDS011;9556;49.374;19.446;2022-07-10T04:27:11;21.77;;;14.13;;
18853;SDS011;9556;49.374;19.446;2022-07-10T04:29:38;22.00;;;13.33;;
18853;SDS011;9556;49.374;19.446;2022-07-10T04:32:05;24.07;;;13.73;;
18853;SDS011;9556;49.374;19.446;2022-07-10T04:34:32;24.57;;;12.93;;
18853;SDS011;9556;49.374;19.446;2022-07-10T04:36:59;20.90;;;13.23;;
18853;SDS011;9556;49.374;19.446;2022-07-10T04:39:26;27.37;;;14.60;;
18853;SDS011;9556;49.374;19.446;2022-07-10T04:41:54;21.53;;;13.67;;
18853;SDS011;9556;49.374;19.446;2022-07-10T04:44:22;21.40;;;11.90;;
18853;SDS011;9556;49.374;19.446;2022-07-10T04:46:49;18.73;;;12.67;;
18853;SDS011;9556;49.374;19.446;2022-07-10T04:49:16;20.50;;;12.50;;
18853;SDS011;9556;49.374;19.446;2022-07-10T04:51:43;15.20;;;10.07;;
18853;SDS011;9556;49.374;19.446;2022-07-10T04:54:10;16.17;;;10.60;;
18853;SDS011;9556;49.374;19.446;2022-07-10T04:56:38;13.60;;;9.93;;
18853;SDS011;9556;49.374;19.446;2022-07-10T04:59:05;16.83;;;8.60;;
18853;SDS011;9556;49.374;19.446;2022-07-10T05:01:34;10.83;;;7.50;;
18853;SDS011;9556;49.374;19.446;2022-07-10T05:04:01;14.27;;;6.57;;
18853;SDS011;9556;49.374;19.446;2022-07-10T05:06:28;9.40;;;6.90;;
18853;SDS011;9556;49.374;19.446;2022-07-10T05:08:55;10.80;;;7.40;;
18853;SDS011;9556;49.374;19.446;2022-07-10T05:11:22;7.60;;;5.57;;
18853;SDS011;9556;49.374;19.446;2022-07-10T05:13:50;13.67;;;5.50;;
18853;SDS011;9556;49.374;19.446;2022-07-10T05:16:18;8.40;;;5.70;;
18853;SDS011;9556;49.374;19.446;2022-07-10T05:18:47;7.47;;;5.50;;
18853;SDS011;9556;49.374;19.446;2022-07-10T05:21:14;6.97;;;5.07;;
18853;SDS011;9556;49.374;19.446;2022-07-10T05:23:41;9.40;;;5.33;;
18853;SDS011;9556;49.374;19.446;2022-07-10T05:26:09;10.80;;;6.13;;
18853;SDS011;9556;49.374;19.446;2022-07-10T05:28:36;7.77;;;5.43;;
18853;SDS011;9556;49.374;19.446;2022-07-10T05:31:03;10.63;;;5.20;;
18853;SDS011;9556;49.374;19.446;2022-07-10T05:33:30;10.37;;;5.07;;
18853;SDS011;9556;49.374;19.446;2022-07-10T05:35:59;8.73;;;5.37;;
18853;SDS011;9556;49.374;19.446;2022-07-10T05:38:26;11.07;;;5.87;;
18853;SDS011;9556;49.374;19.446;2022-07-10T05:40:53;9.80;;;5.77;;
18853;SDS011;9556;49.374;19.446;2022-07-10T05:43:20;7.60;;;4.43;;
18853;SDS011;9556;49.374;19.446;2022-07-10T05:45:47;5.10;;;3.77;;
18853;SDS011;9556;49.374;19.446;2022-07-10T05:48:14;6.33;;;4.07;;
18853;SDS011;9556;49.374;19.446;2022-07-10T05:50:41;8.00;;;4.10;;
18853;SDS011;9556;49.374;19.446;2022-07-10T05:53:10;5.63;;;3.73;;
18853;SDS011;9556;49.374;19.446;2022-07-10T05:55:37;5.97;;;3.90;;
18853;SDS011;9556;49.374;19.446;2022-07-10T05:58:04;6.73;;;3.90;;
18853;SDS011;9556;49.374;19.446;2022-07-10T06:00:31;6.00;;;4.00;;
18853;SDS011;9556;49.374;19.446;2022-07-10T06:02:58;6.33;;;4.07;;
18853;SDS011;9556;49.374;19.446;2022-07-10T06:05:25;6.97;;;4.00;;
18853;SDS011;9556;49.374;19.446;2022-07-10T06:07:52;6.47;;;3.80;;
18853;SDS011;9556;49.374;19.446;2022-07-10T06:10:21;5.70;;;3.60;;
18853;SDS011;9556;49.374;19.446;2022-07-10T06:12:48;7.03;;;4.10;;
18853;SDS011;9556;49.374;19.446;2022-07-10T06:15:15;6.70;;;4.27;;
18853;SDS011;9556;49.374;19.446;2022-07-10T06:17:42;13.47;;;5.13;;
18853;SDS011;9556;49.374;19.446;2022-07-10T06:20:10;6.03;;;4.67;;
18853;SDS011;9556;49.374;19.446;2022-07-10T06:22:37;11.83;;;5.17;;
18853;SDS011;9556;49.374;19.446;2022-07-10T06:25:06;24.70;;;7.23;;
18853;SDS011;9556;49.374;19.446;2022-07-10T06:27:34;12.17;;;8.00;;
18853;SDS011;9556;49.374;19.446;2022-07-10T06:30:02;14.13;;;8.30;;
18853;SDS011;9556;49.374;19.446;2022-07-10T06:32:29;14.90;;;8.50;;
18853;SDS011;9556;49.374;19.446;2022-07-10T06:34:56;9.50;;;7.30;;
18853;SDS011;9556;49.374;19.446;2022-07-10T06:37:23;10.27;;;8.80;;
18853;SDS011;9556;49.374;19.446;2022-07-10T06:39:51;12.07;;;8.87;;
18853;SDS011;9556;49.374;19.446;2022-07-10T06:42:18;15.50;;;10.17;;
18853;SDS011;9556;49.374;19.446;2022-07-10T06:44:46;15.80;;;10.40;;
18853;SDS011;9556;49.374;19.446;2022-07-10T06:47:14;13.73;;;9.37;;
18853;SDS011;9556;49.374;19.446;2022-07-10T06:49:59;12.50;;;8.90;;
18853;SDS011;9556;49.374;19.446;2022-07-10T06:52:27;14.50;;;8.40;;
18853;SDS011;9556;49.374;19.446;2022-07-10T06:54:54;15.87;;;8.67;;
18853;SDS011;9556;49.374;19.446;2022-07-10T06:57:21;11.73;;;8.77;;
18853;SDS011;9556;49.374;19.446;2022-07-10T06:59:50;10.33;;;8.03;;
18853;SDS011;9556;49.374;19.446;2022-07-10T07:02:17;9.53;;;6.60;;
18853;SDS011;9556;49.374;19.446;2022-07-10T07:04:44;12.13;;;6.73;;
18853;SDS011;9556;49.374;19.446;2022-07-10T07:07:12;7.93;;;5.90;;
18853;SDS011;9556;49.374;19.446;2022-07-10T07:09:39;9.13;;;5.23;;
18853;SDS011;9556;49.374;19.446;2022-07-10T07:12:07;7.83;;;5.33;;
18853;SDS011;9556;49.374;19.446;2022-07-10T07:14:35;6.90;;;5.17;;
18853;SDS011;9556;49.374;19.446;2022-07-10T07:17:03;10.77;;;5.47;;
18853;SDS011;9556;49.374;19.446;2022-07-10T07:19:34;6.63;;;5.30;;
18853;SDS011;9556;49.374;19.446;2022-07-10T07:22:15;25.43;;;4.93;;
18853;SDS011;9556;49.374;19.446;2022-07-10T07:25:00;7.07;;;4.70;;
18853;SDS011;9556;49.374;19.446;2022-07-10T07:27:27;6.97;;;4.53;;
18853;SDS011;9556;49.374;19.446;2022-07-10T07:29:54;4.53;;;3.83;;
18853;SDS011;9556;49.374;19.446;2022-07-10T07:32:23;6.97;;;4.70;;
18853;SDS011;9556;49.374;19.446;2022-07-10T07:34:50;8.97;;;3.73;;
18853;SDS011;9556;49.374;19.446;2022-07-10T07:37:17;4.53;;;3.60;;
18853;SDS011;9556;49.374;19.446;2022-07-10T07:39:44;4.63;;;3.33;;
18853;SDS011;9556;49.374;19.446;2022-07-10T07:42:11;5.67;;;3.60;;
18853;SDS011;9556;49.374;19.446;2022-07-10T07:44:38;5.63;;;3.70;;
18853;SDS011;9556;49.374;19.446;2022-07-10T07:47:05;5.60;;;3.80;;
18853;SDS011;9556;49.374;19.446;2022-07-10T07:49:34;4.10;;;3.30;;
18853;SDS011;9556;49.374;19.446;2022-07-10T07:52:01;5.17;;;3.73;;
18853;SDS011;9556;49.374;19.446;2022-07-10T07:54:28;4.87;;;3.10;;
18853;SDS011;9556;49.374;19.446;2022-07-10T07:56:55;6.00;;;2.72;;
18853;SDS011;9556;49.374;19.446;2022-07-10T07:59:22;6.93;;;2.40;;
18853;SDS011;9556;49.374;19.446;2022-07-10T08:01:49;3.23;;;2.27;;
18853;SDS011;9556;49.374;19.446;2022-07-10T08:04:17;3.80;;;2.40;;
18853;SDS011;9556;49.374;19.446;2022-07-10T08:06:45;3.67;;;2.20;;
18853;SDS011;9556;49.374;19.446;2022-07-10T08:09:12;4.53;;;2.20;;
18853;SDS011;9556;49.374;19.446;2022-07-10T08:11:39;2.50;;;2.03;;
18853;SDS011;9556;49.374;19.446;2022-07-10T08:14:06;6.43;;;2.23;;
18853;SDS011;9556;49.374;19.446;2022-07-10T08:16:33;4.73;;;2.13;;
18853;SDS011;9556;49.374;19.446;2022-07-10T08:19:00;4.17;;;2.30;;
18853;SDS011;9556;49.374;19.446;2022-07-10T08:21:27;5.93;;;2.10;;
18853;SDS011;9556;49.374;19.446;2022-07-10T08:23:56;4.77;;;2.00;;
18853;SDS011;9556;49.374;19.446;2022-07-10T08:26:23;3.37;;;2.13;;
18853;SDS011;9556;49.374;19.446;2022-07-10T08:28:51;5.87;;;2.00;;
18853;SDS011;9556;49.374;19.446;2022-07-10T08:31:18;3.57;;;2.20;;
18853;SDS011;9556;49.374;19.446;2022-07-10T08:33:45;2.13;;;1.60;;
18853;SDS011;9556;49.374;19.446;2022-07-10T08:36:13;4.00;;;2.10;;
18853;SDS011;9556;49.374;19.446;2022-07-10T08:38:40;4.60;;;2.10;;
18853;SDS011;9556;49.374;19.446;2022-07-10T08:41:08;3.77;;;2.70;;
18853;SDS011;9556;49.374;19.446;2022-07-10T08:43:37;8.13;;;2.43;;
18853;SDS011;9556;49.374;19.446;2022-07-10T08:46:05;3.80;;;2.00;;
18853;SDS011;9556;49.374;19.446;2022-07-10T08:48:32;2.50;;;1.47;;
18853;SDS011;9556;49.374;19.446;2022-07-10T08:51:01;3.73;;;2.10;;
18853;SDS011;9556;49.374;19.446;2022-07-10T08:53:31;3.70;;;1.60;;
18853;SDS011;9556;49.374;19.446;2022-07-10T08:55:58;2.87;;;1.53;;
18853;SDS011;9556;49.374;19.446;2022-07-10T08:58:27;7.03;;;1.97;;
18853;SDS011;9556;49.374;19.446;2022-07-10T09:00:54;6.50;;;2.10;;
18853;SDS011;9556;49.374;19.446;2022-07-10T09:03:21;8.63;;;1.90;;
18853;SDS011;9556;49.374;19.446;2022-07-10T09:05:48;3.67;;;2.00;;
18853;SDS011;9556;49.374;19.446;2022-07-10T09:08:22;2.73;;;1.80;;
18853;SDS011;9556;49.374;19.446;2022-07-10T09:10:52;4.97;;;1.60;;
18853;SDS011;9556;49.374;19.446;2022-07-10T09:13:19;6.30;;;2.00;;
18853;SDS011;9556;49.374;19.446;2022-07-10T09:15:50;2.73;;;1.53;;
18853;SDS011;9556;49.374;19.446;2022-07-10T09:18:19;2.10;;;1.40;;
18853;SDS011;9556;49.374;19.446;2022-07-10T09:20:46;3.70;;;1.60;;
18853;SDS011;9556;49.374;19.446;2022-07-10T09:23:15;5.10;;;1.63;;
18853;SDS011;9556;49.374;19.446;2022-07-10T09:25:43;2.87;;;1.33;;
18853;SDS011;9556;49.374;19.446;2022-07-10T09:28:10;4.27;;;1.50;;
18853;SDS011;9556;49.374;19.446;2022-07-10T09:30:38;2.57;;;1.43;;
18853;SDS011;9556;49.374;19.446;2022-07-10T09:33:19;1.13;;;1.00;;
18853;SDS011;9556;49.374;19.446;2022-07-10T09:35:54;3.10;;;1.50;;
18853;SDS011;9556;49.374;19.446;2022-07-10T09:38:52;4.83;;;1.73;;
18853;SDS011;9556;49.374;19.446;2022-07-10T09:41:24;2.53;;;1.90;;
18853;SDS011;9556;49.374;19.446;2022-07-10T09:43:51;5.40;;;2.00;;
18853;SDS011;9556;49.374;19.446;2022-07-10T09:46:22;5.47;;;2.30;;
18853;SDS011;9556;49.374;19.446;2022-07-10T09:49:00;4.07;;;2.40;;
18853;SDS011;9556;49.374;19.446;2022-07-10T09:51:29;7.63;;;2.00;;
18853;SDS011;9556;49.374;19.446;2022-07-10T09:53:57;6.00;;;2.30;;
18853;SDS011;9556;49.374;19.446;2022-07-10T09:56:26;3.33;;;1.87;;
18853;SDS011;9556;49.374;19.446;2022-07-10T09:58:54;4.10;;;2.10;;
18853;SDS011;9556;49.374;19.446;2022-07-10T10:01:25;2.13;;;1.77;;
18853;SDS011;9556;49.374;19.446;2022-07-10T10:03:54;3.50;;;1.67;;
18853;SDS011;9556;49.374;19.446;2022-07-10T10:06:23;7.47;;;2.10;;
18853;SDS011;9556;49.374;19.446;2022-07-10T10:08:56;3.30;;;2.17;;
18853;SDS011;9556;49.374;19.446;2022-07-10T10:11:25;4.60;;;1.87;;
18853;SDS011;9556;49.374;19.446;2022-07-10T10:13:53;5.03;;;2.50;;
18853;SDS011;9556;49.374;19.446;2022-07-10T10:16:20;6.03;;;2.63;;
18853;SDS011;9556;49.374;19.446;2022-07-10T10:18:47;4.77;;;1.70;;
18853;SDS011;9556;49.374;19.446;2022-07-10T10:21:34;4.57;;;1.63;;
18853;SDS011;9556;49.374;19.446;2022-07-10T10:24:01;4.70;;;1.60;;
18853;SDS011;9556;49.374;19.446;2022-07-10T10:26:29;3.20;;;1.60;;
18853;SDS011;9556;49.374;19.446;2022-07-10T10:28:56;2.23;;;1.30;;
18853;SDS011;9556;49.374;19.446;2022-07-10T10:31:24;5.83;;;1.70;;
18853;SDS011;9556;49.374;19.446;2022-07-10T10:33:54;5.33;;;1.30;;
18853;SDS011;9556;49.374;19.446;2022-07-10T10:39:14;2.30;;;1.40;;
18853;SDS011;9556;49.374;19.446;2022-07-10T10:41:42;2.23;;;1.37;;
18853;SDS011;9556;49.374;19.446;2022-07-10T10:44:25;2.73;;;1.20;;
18853;SDS011;9556;49.374;19.446;2022-07-10T10:47:03;3.37;;;1.50;;
18853;SDS011;9556;49.374;19.446;2022-07-10T10:49:47;3.90;;;1.27;;
18853;SDS011;9556;49.374;19.446;2022-07-10T10:52:15;6.60;;;1.47;;
18853;SDS011;9556;49.374;19.446;2022-07-10T10:57:40;2.35;;;1.30;;
18853;SDS011;9556;49.374;19.446;2022-07-10T11:00:13;2.63;;;1.20;;
18853;SDS011;9556;49.374;19.446;2022-07-10T11:02:41;3.67;;;1.20;;
18853;SDS011;9556;49.374;19.446;2022-07-10T11:05:38;2.30;;;1.10;;
18853;SDS011;9556;49.374;19.446;2022-07-10T11:08:07;4.13;;;1.33;;
18853;SDS011;9556;49.374;19.446;2022-07-10T11:10:35;3.60;;;1.45;;
18853;SDS011;9556;49.374;19.446;2022-07-10T11:13:05;2.67;;;1.40;;
18853;SDS011;9556;49.374;19.446;2022-07-10T11:15:33;3.13;;;1.40;;
18853;SDS011;9556;49.374;19.446;2022-07-10T11:18:03;3.20;;;1.30;;
18853;SDS011;9556;49.374;19.446;2022-07-10T11:20:31;2.67;;;1.30;;
18853;SDS011;9556;49.374;19.446;2022-07-10T11:25:42;3.03;;;1.20;;
18853;SDS011;9556;49.374;19.446;2022-07-10T11:28:13;4.17;;;1.23;;
18853;SDS011;9556;49.374;19.446;2022-07-10T11:30:44;4.57;;;1.20;;
18853;SDS011;9556;49.374;19.446;2022-07-10T11:33:11;2.80;;;1.75;;
18853;SDS011;9556;49.374;19.446;2022-07-10T11:35:38;5.13;;;1.47;;
18853;SDS011;9556;49.374;19.446;2022-07-10T11:38:06;2.65;;;1.13;;
18853;SDS011;9556;49.374;19.446;2022-07-10T11:40:35;4.35;;;1.35;;
18853;SDS011;9556;49.374;19.446;2022-07-10T11:43:02;3.60;;;1.30;;
18853;SDS011;9556;49.374;19.446;2022-07-10T11:45:33;4.07;;;1.48;;
18853;SDS011;9556;49.374;19.446;2022-07-10T11:48:03;2.53;;;1.27;;
18853;SDS011;9556;49.374;19.446;2022-07-10T11:50:34;4.93;;;1.50;;
18853;SDS011;9556;49.374;19.446;2022-07-10T11:53:01;6.30;;;1.47;;
18853;SDS011;9556;49.374;19.446;2022-07-10T11:55:29;3.67;;;1.57;;
18853;SDS011;9556;49.374;19.446;2022-07-10T11:58:11;4.17;;;1.60;;
18853;SDS011;9556;49.374;19.446;2022-07-10T12:00:40;2.97;;;1.30;;
18853;SDS011;9556;49.374;19.446;2022-07-10T12:03:17;3.13;;;1.50;;
18853;SDS011;9556;49.374;19.446;2022-07-10T12:05:45;5.00;;;1.43;;
18853;SDS011;9556;49.374;19.446;2022-07-10T12:08:12;5.20;;;1.40;;
18853;SDS011;9556;49.374;19.446;2022-07-10T12:10:39;4.40;;;1.50;;
18853;SDS011;9556;49.374;19.446;2022-07-10T12:13:08;3.83;;;1.40;;
18853;SDS011;9556;49.374;19.446;2022-07-10T12:15:36;5.53;;;1.50;;
18853;SDS011;9556;49.374;19.446;2022-07-10T12:18:05;8.43;;;2.20;;
18853;SDS011;9556;49.374;19.446;2022-07-10T12:20:32;5.87;;;1.63;;
18853;SDS011;9556;49.374;19.446;2022-07-10T12:23:00;6.73;;;2.30;;
18853;SDS011;9556;49.374;19.446;2022-07-10T12:25:28;5.40;;;1.80;;
18853;SDS011;9556;49.374;19.446;2022-07-10T12:27:55;5.80;;;1.60;;
18853;SDS011;9556;49.374;19.446;2022-07-10T12:30:23;4.43;;;1.57;;
18853;SDS011;9556;49.374;19.446;2022-07-10T12:32:51;6.60;;;1.70;;
18853;SDS011;9556;49.374;19.446;2022-07-10T12:35:19;7.57;;;1.70;;
18853;SDS011;9556;49.374;19.446;2022-07-10T12:37:47;5.43;;;2.10;;
18853;SDS011;9556;49.374;19.446;2022-07-10T12:43:05;3.80;;;1.50;;
18853;SDS011;9556;49.374;19.446;2022-07-10T12:45:32;6.43;;;1.40;;
18853;SDS011;9556;49.374;19.446;2022-07-10T12:47:59;5.30;;;1.60;;
18853;SDS011;9556;49.374;19.446;2022-07-10T12:50:30;3.00;;;1.53;;
18853;SDS011;9556;49.374;19.446;2022-07-10T12:53:08;3.87;;;1.40;;
18853;SDS011;9556;49.374;19.446;2022-07-10T12:55:36;3.83;;;1.40;;
18853;SDS011;9556;49.374;19.446;2022-07-10T12:58:07;4.47;;;1.27;;
18853;SDS011;9556;49.374;19.446;2022-07-10T13:00:42;4.33;;;1.27;;
18853;SDS011;9556;49.374;19.446;2022-07-10T13:03:10;4.27;;;1.40;;
18853;SDS011;9556;49.374;19.446;2022-07-10T13:05:41;3.77;;;1.20;;
18853;SDS011;9556;49.374;19.446;2022-07-10T13:08:09;3.23;;;1.10;;
18853;SDS011;9556;49.374;19.446;2022-07-10T13:10:38;5.73;;;1.30;;
18853;SDS011;9556;49.374;19.446;2022-07-10T13:13:06;3.97;;;1.30;;
18853;SDS011;9556;49.374;19.446;2022-07-10T13:15:33;3.80;;;1.40;;
18853;SDS011;9556;49.374;19.446;2022-07-10T13:18:04;6.20;;;1.43;;
18853;SDS011;9556;49.374;19.446;2022-07-10T13:20:31;7.70;;;1.50;;
18853;SDS011;9556;49.374;19.446;2022-07-10T13:23:00;6.13;;;1.80;;
18853;SDS011;9556;49.374;19.446;2022-07-10T13:25:27;7.57;;;1.47;;
18853;SDS011;9556;49.374;19.446;2022-07-10T13:27:54;3.23;;;1.30;;
18853;SDS011;9556;49.374;19.446;2022-07-10T13:30:21;4.50;;;1.53;;
18853;SDS011;9556;49.374;19.446;2022-07-10T13:32:48;7.43;;;2.67;;
18853;SDS011;9556;49.374;19.446;2022-07-10T13:35:16;10.80;;;4.80;;
18853;SDS011;9556;49.374;19.446;2022-07-10T13:37:43;24.50;;;13.90;;
18853;SDS011;9556;49.374;19.446;2022-07-10T13:40:13;31.23;;;17.70;;
18853;SDS011;9556;49.374;19.446;2022-07-10T13:42:40;62.60;;;31.03;;
18853;SDS011;9556;49.374;19.446;2022-07-10T13:45:07;96.90;;;49.07;;
18853;SDS011;9556;49.374;19.446;2022-07-10T13:47:35;3.47;;;2.03;;
18853;SDS011;9556;49.374;19.446;2022-07-10T13:50:02;5.23;;;1.10;;
18853;SDS011;9556;49.374;19.446;2022-07-10T13:52:29;6.40;;;1.53;;
18853;SDS011;9556;49.374;19.446;2022-07-10T13:54:56;3.30;;;1.30;;
18853;SDS011;9556;49.374;19.446;2022-07-10T13:57:25;7.20;;;1.30;;
18853;SDS011;9556;49.374;19.446;2022-07-10T13:59:53;6.53;;;1.20;;
18853;SDS011;9556;49.374;19.446;2022-07-10T14:02:20;5.97;;;1.30;;
18853;SDS011;9556;49.374;19.446;2022-07-10T14:04:47;2.30;;;0.93;;
18853;SDS011;9556;49.374;19.446;2022-07-10T14:07:14;1.90;;;1.00;;
18853;SDS011;9556;49.374;19.446;2022-07-10T14:09:42;6.27;;;1.50;;
18853;SDS011;9556;49.374;19.446;2022-07-10T14:12:09;4.17;;;1.30;;
18853;SDS011;9556;49.374;19.446;2022-07-10T14:14:37;8.53;;;2.20;;
18853;SDS011;9556;49.374;19.446;2022-07-10T14:17:04;4.73;;;1.30;;
18853;SDS011;9556;49.374;19.446;2022-07-10T14:19:32;2.53;;;1.13;;
18853;SDS011;9556;49.374;19.446;2022-07-10T14:21:59;3.97;;;1.20;;
18853;SDS011;9556;49.374;19.446;2022-07-10T14:24:26;2.60;;;0.93;;
18853;SDS011;9556;49.374;19.446;2022-07-10T14:26:53;4.70;;;1.30;;
18853;SDS011;9556;49.374;19.446;2022-07-10T14:29:20;6.73;;;1.10;;
18853;SDS011;9556;49.374;19.446;2022-07-10T14:31:49;2.57;;;1.03;;
18853;SDS011;9556;49.374;19.446;2022-07-10T14:34:16;3.73;;;1.33;;
18853;SDS011;9556;49.374;19.446;2022-07-10T14:36:44;4.70;;;1.07;;
18853;SDS011;9556;49.374;19.446;2022-07-10T14:39:11;6.30;;;1.40;;
18853;SDS011;9556;49.374;19.446;2022-07-10T14:41:38;2.33;;;1.00;;
18853;SDS011;9556;49.374;19.446;2022-07-10T14:44:05;5.63;;;1.23;;
18853;SDS011;9556;49.374;19.446;2022-07-10T14:46:32;6.20;;;1.07;;
18853;SDS011;9556;49.374;19.446;2022-07-10T14:49:01;2.70;;;1.10;;
18853;SDS011;9556;49.374;19.446;2022-07-10T14:51:28;2.77;;;1.30;;
18853;SDS011;9556;49.374;19.446;2022-07-10T14:53:55;3.25;;;1.13;;
18853;SDS011;9556;49.374;19.446;2022-07-10T14:56:23;5.28;;;1.15;;